sensor_id;sensor_type;location;lat;lon;timestamp;temperature;humidity
22202;DHT22;11266;51.522;6.302;2024-01-06T00:00:12;6.60;99.90
22202;DHT22;11266;51.522;6.302;2024-01-06T00:00:58;6.70;99.90
22202;DHT22;11266;51.522;6.302;2024-01-06T00:01:44;6.70;99.90
22202;DHT22;11266;51.522;6.302;2024-01-06T00:02:29;6.70;99.90
22202;DHT22;11266;51.522;6.302;2024-01-06T00:03:15;6.70;99.90
22202;DHT22;11266;51.522;6.302;2024-01-06T00:04:00;6.70;99.90
22202;DHT22;11266;51.522;6.302;2024-01-06T00:04:46;6.70;99.90
22202;DHT22;11266;51.522;6.302;2024-01-06T00:05:31;6.70;99.90
22202;DHT22;11266;51.522;6.302;2024-01-06T00:06:17;6.70;99.90
22202;DHT22;11266;51.522;6.302;2024-01-06T00:07:02;6.70;99.90
22202;DHT22;11266;51.522;6.302;2024-01-06T00:07:48;6.70;99.90
22202;DHT22;11266;51.522;6.302;2024-01-06T00:08:34;6.70;99.90
22202;DHT22;11266;51.522;6.302;2024-01-06T00:09:20;6.70;99.90
22202;DHT22;11266;51.522;6.302;2024-01-06T00:10:06;6.70;99.90
22202;DHT22;11266;51.522;6.302;2024-01-06T00:10:52;6.70;99.90
22202;DHT22;11266;51.522;6.302;2024-01-06T00:11:37;6.70;99.90
22202;DHT22;11266;51.522;6.302;2024-01-06T00:12:23;6.70;99.90
22202;DHT22;11266;51.522;6.302;2024-01-06T00:13:09;6.70;99.90
22202;DHT22;11266;51.522;6.302;2024-01-06T00:13:55;6.70;99.90
22202;DHT22;11266;51.522;6.302;2024-01-06T00:14:40;6.70;99.90
22202;DHT22;11266;51.522;6.302;2024-01-06T00:15:29;6.70;99.90
22202;DHT22;11266;51.522;6.302;2024-01-06T00:16:17;6.70;99.90
22202;DHT22;11266;51.522;6.302;2024-01-06T00:17:04;6.70;99.90
22202;DHT22;11266;51.522;6.302;2024-01-06T00:17:49;6.70;99.90
22202;DHT22;11266;51.522;6.302;2024-01-06T00:18:35;6.70;99.90
22202;DHT22;11266;51.522;6.302;2024-01-06T00:19:20;6.70;99.90
22202;DHT22;11266;51.522;6.302;2024-01-06T00:20:06;6.70;99.90
22202;DHT22;11266;51.522;6.302;2024-01-06T00:20:52;6.70;99.90
22202;DHT22;11266;51.522;6.302;2024-01-06T00:21:38;6.70;99.90
22202;DHT22;11266;51.522;6.302;2024-01-06T00:22:24;6.70;99.90
22202;DHT22;11266;51.522;6.302;2024-01-06T00:23:09;6.70;99.90
22202;DHT22;11266;51.522;6.302;2024-01-06T00:23:55;6.70;99.90
22202;DHT22;11266;51.522;6.302;2024-01-06T00:24:43;6.70;99.90
22202;DHT22;11266;51.522;6.302;2024-01-06T00:25:29;6.70;99.90
22202;DHT22;11266;51.522;6.302;2024-01-06T00:26:14;6.70;99.90
22202;DHT22;11266;51.522;6.302;2024-01-06T00:27:00;6.70;99.90
22202;DHT22;11266;51.522;6.302;2024-01-06T00:27:45;6.70;99.90
22202;DHT22;11266;51.522;6.302;2024-01-06T00:28:31;6.70;99.90
22202;DHT22;11266;51.522;6.302;2024-01-06T00:29:16;6.70;99.90
22202;DHT22;11266;51.522;6.302;2024-01-06T00:30:02;6.70;99.90
22202;DHT22;11266;51.522;6.302;2024-01-06T00:30:48;6.70;99.90
22202;DHT22;11266;51.522;6.302;2024-01-06T00:31:34;6.60;99.90
22202;DHT22;11266;51.522;6.302;2024-01-06T00:32:20;6.70;99.90
22202;DHT22;11266;51.522;6.302;2024-01-06T00:33:05;6.60;99.90
22202;DHT22;11266;51.522;6.302;2024-01-06T00:33:51;6.60;99.90
22202;DHT22;11266;51.522;6.302;2024-01-06T00:34:36;6.60;99.90
22202;DHT22;11266;51.522;6.302;2024-01-06T00:35:22;6.60;99.90
22202;DHT22;11266;51.522;6.302;2024-01-06T00:36:08;6.70;99.90
22202;DHT22;11266;51.522;6.302;2024-01-06T00:36:53;6.70;99.90
22202;DHT22;11266;51.522;6.302;2024-01-06T00:37:39;6.70;99.90
22202;DHT22;11266;51.522;6.302;2024-01-06T00:38:25;6.70;99.90
22202;DHT22;11266;51.522;6.302;2024-01-06T00:39:11;6.60;99.90
22202;DHT22;11266;51.522;6.302;2024-01-06T00:39:57;6.70;99.90
22202;DHT22;11266;51.522;6.302;2024-01-06T00:40:42;6.60;99.90
22202;DHT22;11266;51.522;6.302;2024-01-06T00:41:28;6.60;99.90
22202;DHT22;11266;51.522;6.302;2024-01-06T00:42:13;6.60;99.90
22202;DHT22;11266;51.522;6.302;2024-01-06T00:42:59;6.60;99.90
22202;DHT22;11266;51.522;6.302;2024-01-06T00:43:44;6.60;99.90
22202;DHT22;11266;51.522;6.302;2024-01-06T00:44:30;6.70;99.90
22202;DHT22;11266;51.522;6.302;2024-01-06T00:45:16;6.70;99.90
22202;DHT22;11266;51.522;6.302;2024-01-06T00:46:01;6.70;99.90
22202;DHT22;11266;51.522;6.302;2024-01-06T00:46:47;6.70;99.90
22202;DHT22;11266;51.522;6.302;2024-01-06T00:47:32;6.70;99.90
22202;DHT22;11266;51.522;6.302;2024-01-06T00:48:18;6.60;99.90
22202;DHT22;11266;51.522;6.302;2024-01-06T00:49:03;6.60;99.90
22202;DHT22;11266;51.522;6.302;2024-01-06T00:49:49;6.70;99.90
22202;DHT22;11266;51.522;6.302;2024-01-06T00:50:35;6.60;99.90
22202;DHT22;11266;51.522;6.302;2024-01-06T00:51:20;6.60;99.90
22202;DHT22;11266;51.522;6.302;2024-01-06T00:52:07;6.70;99.90
22202;DHT22;11266;51.522;6.302;2024-01-06T00:52:52;6.60;99.90
22202;DHT22;11266;51.522;6.302;2024-01-06T00:53:38;6.70;99.90
22202;DHT22;11266;51.522;6.302;2024-01-06T00:54:24;6.60;99.90
22202;DHT22;11266;51.522;6.302;2024-01-06T00:55:09;6.60;99.90
22202;DHT22;11266;51.522;6.302;2024-01-06T00:55:55;6.60;99.90
22202;DHT22;11266;51.522;6.302;2024-01-06T00:56:40;6.60;99.90
22202;DHT22;11266;51.522;6.302;2024-01-06T00:57:27;6.60;99.90
22202;DHT22;11266;51.522;6.302;2024-01-06T00:58:13;6.60;99.90
22202;DHT22;11266;51.522;6.302;2024-01-06T00:58:58;6.60;99.90
22202;DHT22;11266;51.522;6.302;2024-01-06T00:59:44;6.60;99.90
22202;DHT22;11266;51.522;6.302;2024-01-06T01:00:29;6.60;99.90
22202;DHT22;11266;51.522;6.302;2024-01-06T01:01:15;6.70;99.90
22202;DHT22;11266;51.522;6.302;2024-01-06T01:02:01;6.60;99.90
22202;DHT22;11266;51.522;6.302;2024-01-06T01:02:46;6.60;99.90
22202;DHT22;11266;51.522;6.302;2024-01-06T01:03:32;6.60;99.90
22202;DHT22;11266;51.522;6.302;2024-01-06T01:04:17;6.60;99.90
22202;DHT22;11266;51.522;6.302;2024-01-06T01:05:03;6.60;99.90
22202;DHT22;11266;51.522;6.302;2024-01-06T01:05:48;6.60;99.90
22202;DHT22;11266;51.522;6.302;2024-01-06T01:06:36;6.60;99.90
22202;DHT22;11266;51.522;6.302;2024-01-06T01:07:22;6.60;99.90
22202;DHT22;11266;51.522;6.302;2024-01-06T01:08:07;6.60;99.90
22202;DHT22;11266;51.522;6.302;2024-01-06T01:08:53;6.60;99.90
22202;DHT22;11266;51.522;6.302;2024-01-06T01:09:38;6.60;99.90
22202;DHT22;11266;51.522;6.302;2024-01-06T01:10:24;6.60;99.90
22202;DHT22;11266;51.522;6.302;2024-01-06T01:11:10;6.60;99.90
22202;DHT22;11266;51.522;6.302;2024-01-06T01:11:55;6.60;99.90
22202;DHT22;11266;51.522;6.302;2024-01-06T01:12:41;6.60;99.90
22202;DHT22;11266;51.522;6.302;2024-01-06T01:13:26;6.50;99.90
22202;DHT22;11266;51.522;6.302;2024-01-06T01:14:12;6.60;99.90
22202;DHT22;11266;51.522;6.302;2024-01-06T01:14:57;6.60;99.90
22202;DHT22;11266;51.522;6.302;2024-01-06T01:15:43;6.60;99.90
22202;DHT22;11266;51.522;6.302;2024-01-06T01:16:28;6.50;99.90
22202;DHT22;11266;51.522;6.302;2024-01-06T01:17:14;6.60;99.90
22202;DHT22;11266;51.522;6.302;2024-01-06T01:18:00;6.60;99.90
22202;DHT22;11266;51.522;6.302;2024-01-06T01:18:46;6.60;99.90
22202;DHT22;11266;51.522;6.302;2024-01-06T01:19:31;6.60;99.90
22202;DHT22;11266;51.522;6.302;2024-01-06T01:20:17;6.60;99.90
22202;DHT22;11266;51.522;6.302;2024-01-06T01:21:03;6.60;99.90
22202;DHT22;11266;51.522;6.302;2024-01-06T01:21:48;6.60;99.90
22202;DHT22;11266;51.522;6.302;2024-01-06T01:22:34;6.60;99.90
22202;DHT22;11266;51.522;6.302;2024-01-06T01:23:19;6.60;99.90
22202;DHT22;11266;51.522;6.302;2024-01-06T01:24:05;6.60;99.90
22202;DHT22;11266;51.522;6.302;2024-01-06T01:24:50;6.50;99.90
22202;DHT22;11266;51.522;6.302;2024-01-06T01:25:36;6.50;99.90
22202;DHT22;11266;51.522;6.302;2024-01-06T01:26:22;6.50;99.90
22202;DHT22;11266;51.522;6.302;2024-01-06T01:27:07;6.50;99.90
22202;DHT22;11266;51.522;6.302;2024-01-06T01:27:53;6.50;99.90
22202;DHT22;11266;51.522;6.302;2024-01-06T01:28:38;6.50;99.90
22202;DHT22;11266;51.522;6.302;2024-01-06T01:29:24;6.50;99.90
22202;DHT22;11266;51.522;6.302;2024-01-06T01:30:09;6.50;99.90
22202;DHT22;11266;51.522;6.302;2024-01-06T01:30:55;6.50;99.90
22202;DHT22;11266;51.522;6.302;2024-01-06T01:31:41;6.50;99.90
22202;DHT22;11266;51.522;6.302;2024-01-06T01:32:26;6.50;99.90
22202;DHT22;11266;51.522;6.302;2024-01-06T01:33:12;6.50;99.90
22202;DHT22;11266;51.522;6.302;2024-01-06T01:33:57;6.50;99.90
22202;DHT22;11266;51.522;6.302;2024-01-06T01:34:43;6.50;99.90
22202;DHT22;11266;51.522;6.302;2024-01-06T01:35:28;6.50;99.90
22202;DHT22;11266;51.522;6.302;2024-01-06T01:36:14;6.50;99.90
22202;DHT22;11266;51.522;6.302;2024-01-06T01:37:00;6.50;99.90
22202;DHT22;11266;51.522;6.302;2024-01-06T01:37:45;6.50;99.90
22202;DHT22;11266;51.522;6.302;2024-01-06T01:38:31;6.50;99.90
22202;DHT22;11266;51.522;6.302;2024-01-06T01:39:17;6.50;99.90
22202;DHT22;11266;51.522;6.302;2024-01-06T01:40:03;6.40;99.90
22202;DHT22;11266;51.522;6.302;2024-01-06T01:40:48;6.40;99.90
22202;DHT22;11266;51.522;6.302;2024-01-06T01:41:34;6.40;99.90
22202;DHT22;11266;51.522;6.302;2024-01-06T01:42:20;6.40;99.90
22202;DHT22;11266;51.522;6.302;2024-01-06T01:43:05;6.40;99.90
22202;DHT22;11266;51.522;6.302;2024-01-06T01:43:52;6.40;99.90
22202;DHT22;11266;51.522;6.302;2024-01-06T01:44:43;6.40;99.90
22202;DHT22;11266;51.522;6.302;2024-01-06T01:45:29;6.40;99.90
22202;DHT22;11266;51.522;6.302;2024-01-06T01:46:15;6.40;99.90
22202;DHT22;11266;51.522;6.302;2024-01-06T01:47:02;6.40;99.90
22202;DHT22;11266;51.522;6.302;2024-01-06T01:47:48;6.40;99.90
22202;DHT22;11266;51.522;6.302;2024-01-06T01:48:34;6.40;99.90
22202;DHT22;11266;51.522;6.302;2024-01-06T01:49:19;6.50;99.90
22202;DHT22;11266;51.522;6.302;2024-01-06T01:50:06;6.50;99.90
22202;DHT22;11266;51.522;6.302;2024-01-06T01:50:53;6.60;99.90
22202;DHT22;11266;51.522;6.302;2024-01-06T01:51:39;6.50;99.90
22202;DHT22;11266;51.522;6.302;2024-01-06T01:52:25;6.50;99.90
22202;DHT22;11266;51.522;6.302;2024-01-06T01:53:11;6.50;99.90
22202;DHT22;11266;51.522;6.302;2024-01-06T01:53:57;6.60;99.90
22202;DHT22;11266;51.522;6.302;2024-01-06T01:54:45;6.50;99.90
22202;DHT22;11266;51.522;6.302;2024-01-06T01:55:30;6.50;99.90
22202;DHT22;11266;51.522;6.302;2024-01-06T01:56:16;6.50;99.90
22202;DHT22;11266;51.522;6.302;2024-01-06T01:57:02;6.50;99.90
22202;DHT22;11266;51.522;6.302;2024-01-06T01:57:48;6.50;99.90
22202;DHT22;11266;51.522;6.302;2024-01-06T01:58:34;6.50;99.90
22202;DHT22;11266;51.522;6.302;2024-01-06T01:59:19;6.50;99.90
22202;DHT22;11266;51.522;6.302;2024-01-06T02:00:06;6.50;99.90
22202;DHT22;11266;51.522;6.302;2024-01-06T02:00:52;6.60;99.90
22202;DHT22;11266;51.522;6.302;2024-01-06T02:01:41;6.60;99.90
22202;DHT22;11266;51.522;6.302;2024-01-06T02:02:27;6.70;99.90
22202;DHT22;11266;51.522;6.302;2024-01-06T02:03:14;6.70;99.90
22202;DHT22;11266;51.522;6.302;2024-01-06T02:04:00;6.80;99.90
22202;DHT22;11266;51.522;6.302;2024-01-06T02:04:45;6.80;99.90
22202;DHT22;11266;51.522;6.302;2024-01-06T02:05:31;6.80;99.90
22202;DHT22;11266;51.522;6.302;2024-01-06T02:06:17;6.70;99.90
22202;DHT22;11266;51.522;6.302;2024-01-06T02:07:02;6.60;99.90
22202;DHT22;11266;51.522;6.302;2024-01-06T02:07:48;6.60;99.90
22202;DHT22;11266;51.522;6.302;2024-01-06T02:08:37;6.60;99.90
22202;DHT22;11266;51.522;6.302;2024-01-06T02:09:26;6.50;99.90
22202;DHT22;11266;51.522;6.302;2024-01-06T02:10:14;6.40;99.90
22202;DHT22;11266;51.522;6.302;2024-01-06T02:11:00;6.50;99.90
22202;DHT22;11266;51.522;6.302;2024-01-06T02:11:45;6.50;99.90
22202;DHT22;11266;51.522;6.302;2024-01-06T02:12:31;6.50;99.90
22202;DHT22;11266;51.522;6.302;2024-01-06T02:13:16;6.40;99.90
22202;DHT22;11266;51.522;6.302;2024-01-06T02:14:02;6.30;99.90
22202;DHT22;11266;51.522;6.302;2024-01-06T02:14:48;6.30;99.90
22202;DHT22;11266;51.522;6.302;2024-01-06T02:15:33;6.30;99.90
22202;DHT22;11266;51.522;6.302;2024-01-06T02:16:19;6.30;99.90
22202;DHT22;11266;51.522;6.302;2024-01-06T02:17:05;6.30;99.90
22202;DHT22;11266;51.522;6.302;2024-01-06T02:17:51;6.30;99.90
22202;DHT22;11266;51.522;6.302;2024-01-06T02:18:36;6.30;99.90
22202;DHT22;11266;51.522;6.302;2024-01-06T02:19:22;6.20;99.90
22202;DHT22;11266;51.522;6.302;2024-01-06T02:20:08;6.20;99.90
22202;DHT22;11266;51.522;6.302;2024-01-06T02:20:57;6.20;99.90
22202;DHT22;11266;51.522;6.302;2024-01-06T02:21:47;6.30;99.90
22202;DHT22;11266;51.522;6.302;2024-01-06T02:22:35;6.20;99.90
22202;DHT22;11266;51.522;6.302;2024-01-06T02:23:21;6.20;99.90
22202;DHT22;11266;51.522;6.302;2024-01-06T02:24:07;6.20;99.90
22202;DHT22;11266;51.522;6.302;2024-01-06T02:24:53;6.20;99.90
22202;DHT22;11266;51.522;6.302;2024-01-06T02:25:39;6.10;99.90
22202;DHT22;11266;51.522;6.302;2024-01-06T02:26:24;6.10;99.90
22202;DHT22;11266;51.522;6.302;2024-01-06T02:27:10;6.10;99.90
22202;DHT22;11266;51.522;6.302;2024-01-06T02:27:56;6.10;99.90
22202;DHT22;11266;51.522;6.302;2024-01-06T02:28:41;6.10;99.90
22202;DHT22;11266;51.522;6.302;2024-01-06T02:29:30;6.10;99.90
22202;DHT22;11266;51.522;6.302;2024-01-06T02:30:15;6.10;99.90
22202;DHT22;11266;51.522;6.302;2024-01-06T02:31:01;6.00;99.90
22202;DHT22;11266;51.522;6.302;2024-01-06T02:31:46;6.00;99.90
22202;DHT22;11266;51.522;6.302;2024-01-06T02:32:32;5.90;99.90
22202;DHT22;11266;51.522;6.302;2024-01-06T02:33:18;5.90;99.90
22202;DHT22;11266;51.522;6.302;2024-01-06T02:34:04;6.00;99.90
22202;DHT22;11266;51.522;6.302;2024-01-06T02:34:50;6.00;99.90
22202;DHT22;11266;51.522;6.302;2024-01-06T02:35:36;6.00;99.90
22202;DHT22;11266;51.522;6.302;2024-01-06T02:36:21;6.00;99.90
22202;DHT22;11266;51.522;6.302;2024-01-06T02:37:07;6.00;99.90
22202;DHT22;11266;51.522;6.302;2024-01-06T02:37:52;5.90;99.90
22202;DHT22;11266;51.522;6.302;2024-01-06T02:38:38;6.00;99.90
22202;DHT22;11266;51.522;6.302;2024-01-06T02:39:23;6.10;99.90
22202;DHT22;11266;51.522;6.302;2024-01-06T02:40:09;6.00;99.90
22202;DHT22;11266;51.522;6.302;2024-01-06T02:40:55;6.10;99.90
22202;DHT22;11266;51.522;6.302;2024-01-06T02:41:41;6.00;99.90
22202;DHT22;11266;51.522;6.302;2024-01-06T02:42:26;6.00;99.90
22202;DHT22;11266;51.522;6.302;2024-01-06T02:43:12;6.10;99.90
22202;DHT22;11266;51.522;6.302;2024-01-06T02:43:58;6.00;99.90
22202;DHT22;11266;51.522;6.302;2024-01-06T02:44:43;6.10;99.90
22202;DHT22;11266;51.522;6.302;2024-01-06T02:45:29;6.00;99.90
22202;DHT22;11266;51.522;6.302;2024-01-06T02:46:14;5.90;99.90
22202;DHT22;11266;51.522;6.302;2024-01-06T02:47:00;5.90;99.90
22202;DHT22;11266;51.522;6.302;2024-01-06T02:47:45;5.90;99.90
22202;DHT22;11266;51.522;6.302;2024-01-06T02:48:31;5.90;99.90
22202;DHT22;11266;51.522;6.302;2024-01-06T02:49:16;5.90;99.90
22202;DHT22;11266;51.522;6.302;2024-01-06T02:50:02;5.90;99.90
22202;DHT22;11266;51.522;6.302;2024-01-06T02:50:48;5.90;99.90
22202;DHT22;11266;51.522;6.302;2024-01-06T02:51:33;5.90;99.90
22202;DHT22;11266;51.522;6.302;2024-01-06T02:52:19;5.80;99.90
22202;DHT22;11266;51.522;6.302;2024-01-06T02:53:04;5.80;99.90
22202;DHT22;11266;51.522;6.302;2024-01-06T02:53:50;5.80;99.90
22202;DHT22;11266;51.522;6.302;2024-01-06T02:54:35;5.80;99.90
22202;DHT22;11266;51.522;6.302;2024-01-06T02:55:21;5.80;99.90
22202;DHT22;11266;51.522;6.302;2024-01-06T02:56:10;5.80;99.90
22202;DHT22;11266;51.522;6.302;2024-01-06T02:56:56;5.80;99.90
22202;DHT22;11266;51.522;6.302;2024-01-06T02:57:41;5.90;99.90
22202;DHT22;11266;51.522;6.302;2024-01-06T02:58:27;5.80;99.90
22202;DHT22;11266;51.522;6.302;2024-01-06T02:59:13;5.80;99.90
22202;DHT22;11266;51.522;6.302;2024-01-06T02:59:58;5.80;99.90
22202;DHT22;11266;51.522;6.302;2024-01-06T03:00:44;5.90;99.90
22202;DHT22;11266;51.522;6.302;2024-01-06T03:01:31;5.80;99.90
22202;DHT22;11266;51.522;6.302;2024-01-06T03:02:17;5.80;99.90
22202;DHT22;11266;51.522;6.302;2024-01-06T03:03:02;5.80;99.90
22202;DHT22;11266;51.522;6.302;2024-01-06T03:03:48;5.80;99.90
22202;DHT22;11266;51.522;6.302;2024-01-06T03:04:33;5.80;99.90
22202;DHT22;11266;51.522;6.302;2024-01-06T03:05:19;5.80;99.90
22202;DHT22;11266;51.522;6.302;2024-01-06T03:06:05;5.80;99.90
22202;DHT22;11266;51.522;6.302;2024-01-06T03:06:50;5.80;99.90
22202;DHT22;11266;51.522;6.302;2024-01-06T03:07:38;5.80;99.90
22202;DHT22;11266;51.522;6.302;2024-01-06T03:08:24;5.80;99.90
22202;DHT22;11266;51.522;6.302;2024-01-06T03:09:09;5.80;99.90
22202;DHT22;11266;51.522;6.302;2024-01-06T03:09:55;5.80;99.90
22202;DHT22;11266;51.522;6.302;2024-01-06T03:10:40;5.80;99.90
22202;DHT22;11266;51.522;6.302;2024-01-06T03:11:26;5.90;99.90
22202;DHT22;11266;51.522;6.302;2024-01-06T03:12:12;5.80;99.90
22202;DHT22;11266;51.522;6.302;2024-01-06T03:12:57;5.80;99.90
22202;DHT22;11266;51.522;6.302;2024-01-06T03:13:43;5.80;99.90
22202;DHT22;11266;51.522;6.302;2024-01-06T03:14:29;5.80;99.90
22202;DHT22;11266;51.522;6.302;2024-01-06T03:15:14;5.80;99.90
22202;DHT22;11266;51.522;6.302;2024-01-06T03:16:03;5.80;99.90
22202;DHT22;11266;51.522;6.302;2024-01-06T03:16:50;5.80;99.90
22202;DHT22;11266;51.522;6.302;2024-01-06T03:17:36;5.80;99.90
22202;DHT22;11266;51.522;6.302;2024-01-06T03:18:21;5.80;99.90
22202;DHT22;11266;51.522;6.302;2024-01-06T03:19:07;5.70;99.90
22202;DHT22;11266;51.522;6.302;2024-01-06T03:19:52;5.80;99.90
22202;DHT22;11266;51.522;6.302;2024-01-06T03:20:38;5.80;99.90
22202;DHT22;11266;51.522;6.302;2024-01-06T03:21:24;5.80;99.90
22202;DHT22;11266;51.522;6.302;2024-01-06T03:22:10;5.80;99.90
22202;DHT22;11266;51.522;6.302;2024-01-06T03:22:55;5.70;99.90
22202;DHT22;11266;51.522;6.302;2024-01-06T03:23:41;5.70;99.90
22202;DHT22;11266;51.522;6.302;2024-01-06T03:24:26;5.80;99.90
22202;DHT22;11266;51.522;6.302;2024-01-06T03:25:12;5.70;99.90
22202;DHT22;11266;51.522;6.302;2024-01-06T03:25:58;5.80;99.90
22202;DHT22;11266;51.522;6.302;2024-01-06T03:26:43;5.80;99.90
22202;DHT22;11266;51.522;6.302;2024-01-06T03:27:29;5.80;99.90
22202;DHT22;11266;51.522;6.302;2024-01-06T03:28:14;5.80;99.90
22202;DHT22;11266;51.522;6.302;2024-01-06T03:29:00;5.80;99.90
22202;DHT22;11266;51.522;6.302;2024-01-06T03:29:47;5.80;99.90
22202;DHT22;11266;51.522;6.302;2024-01-06T03:30:33;5.70;99.90
22202;DHT22;11266;51.522;6.302;2024-01-06T03:31:18;5.70;99.90
22202;DHT22;11266;51.522;6.302;2024-01-06T03:32:06;5.70;99.90
22202;DHT22;11266;51.522;6.302;2024-01-06T03:32:51;5.80;99.90
22202;DHT22;11266;51.522;6.302;2024-01-06T03:33:37;5.70;99.90
22202;DHT22;11266;51.522;6.302;2024-01-06T03:34:23;5.70;99.90
22202;DHT22;11266;51.522;6.302;2024-01-06T03:35:08;5.70;99.90
22202;DHT22;11266;51.522;6.302;2024-01-06T03:35:54;5.80;99.90
22202;DHT22;11266;51.522;6.302;2024-01-06T03:36:40;5.80;99.90
22202;DHT22;11266;51.522;6.302;2024-01-06T03:37:26;5.80;99.90
22202;DHT22;11266;51.522;6.302;2024-01-06T03:38:11;5.80;99.90
22202;DHT22;11266;51.522;6.302;2024-01-06T03:38:57;5.80;99.90
22202;DHT22;11266;51.522;6.302;2024-01-06T03:39:42;5.70;99.90
22202;DHT22;11266;51.522;6.302;2024-01-06T03:40:28;5.70;99.90
22202;DHT22;11266;51.522;6.302;2024-01-06T03:41:13;5.70;99.90
22202;DHT22;11266;51.522;6.302;2024-01-06T03:42:00;5.70;99.90
22202;DHT22;11266;51.522;6.302;2024-01-06T03:42:45;5.70;99.90
22202;DHT22;11266;51.522;6.302;2024-01-06T03:43:31;5.60;99.90
22202;DHT22;11266;51.522;6.302;2024-01-06T03:44:16;5.70;99.90
22202;DHT22;11266;51.522;6.302;2024-01-06T03:45:02;5.70;99.90
22202;DHT22;11266;51.522;6.302;2024-01-06T03:45:49;5.70;99.90
22202;DHT22;11266;51.522;6.302;2024-01-06T03:46:35;5.70;99.90
22202;DHT22;11266;51.522;6.302;2024-01-06T03:47:21;5.70;99.90
22202;DHT22;11266;51.522;6.302;2024-01-06T03:48:07;5.70;99.90
22202;DHT22;11266;51.522;6.302;2024-01-06T03:48:52;5.60;99.90
22202;DHT22;11266;51.522;6.302;2024-01-06T03:49:38;5.70;99.90
22202;DHT22;11266;51.522;6.302;2024-01-06T03:50:23;5.70;99.90
22202;DHT22;11266;51.522;6.302;2024-01-06T03:51:10;5.70;99.90
22202;DHT22;11266;51.522;6.302;2024-01-06T03:51:55;5.60;99.90
22202;DHT22;11266;51.522;6.302;2024-01-06T03:52:41;5.60;99.90
22202;DHT22;11266;51.522;6.302;2024-01-06T03:53:26;5.70;99.90
22202;DHT22;11266;51.522;6.302;2024-01-06T03:54:12;5.70;99.90
22202;DHT22;11266;51.522;6.302;2024-01-06T03:54:58;5.70;99.90
22202;DHT22;11266;51.522;6.302;2024-01-06T03:55:43;5.70;99.90
22202;DHT22;11266;51.522;6.302;2024-01-06T03:56:29;5.70;99.90
22202;DHT22;11266;51.522;6.302;2024-01-06T03:57:14;5.70;99.90
22202;DHT22;11266;51.522;6.302;2024-01-06T03:58:00;5.70;99.90
22202;DHT22;11266;51.522;6.302;2024-01-06T03:58:46;5.70;99.90
22202;DHT22;11266;51.522;6.302;2024-01-06T03:59:31;5.80;99.90
22202;DHT22;11266;51.522;6.302;2024-01-06T04:00:17;5.80;99.90
22202;DHT22;11266;51.522;6.302;2024-01-06T04:01:03;5.70;99.90
22202;DHT22;11266;51.522;6.302;2024-01-06T04:01:48;5.70;99.90
22202;DHT22;11266;51.522;6.302;2024-01-06T04:02:34;5.70;99.90
22202;DHT22;11266;51.522;6.302;2024-01-06T04:03:19;5.70;99.90
22202;DHT22;11266;51.522;6.302;2024-01-06T04:04:05;5.70;99.90
22202;DHT22;11266;51.522;6.302;2024-01-06T04:04:51;5.60;99.90
22202;DHT22;11266;51.522;6.302;2024-01-06T04:05:36;5.70;99.90
22202;DHT22;11266;51.522;6.302;2024-01-06T04:06:22;5.70;99.90
22202;DHT22;11266;51.522;6.302;2024-01-06T04:07:08;5.60;99.90
22202;DHT22;11266;51.522;6.302;2024-01-06T04:07:53;5.70;99.90
22202;DHT22;11266;51.522;6.302;2024-01-06T04:08:39;5.70;99.90
22202;DHT22;11266;51.522;6.302;2024-01-06T04:09:26;5.70;99.90
22202;DHT22;11266;51.522;6.302;2024-01-06T04:10:12;5.70;99.90
22202;DHT22;11266;51.522;6.302;2024-01-06T04:10:57;5.70;99.90
22202;DHT22;11266;51.522;6.302;2024-01-06T04:11:43;5.70;99.90
22202;DHT22;11266;51.522;6.302;2024-01-06T04:12:28;5.60;99.90
22202;DHT22;11266;51.522;6.302;2024-01-06T04:13:15;5.60;99.90
22202;DHT22;11266;51.522;6.302;2024-01-06T04:14:00;5.60;99.90
22202;DHT22;11266;51.522;6.302;2024-01-06T04:14:46;5.60;99.90
22202;DHT22;11266;51.522;6.302;2024-01-06T04:15:31;5.60;99.90
22202;DHT22;11266;51.522;6.302;2024-01-06T04:16:17;5.60;99.90
22202;DHT22;11266;51.522;6.302;2024-01-06T04:17:03;5.60;99.90
22202;DHT22;11266;51.522;6.302;2024-01-06T04:17:49;5.60;99.90
22202;DHT22;11266;51.522;6.302;2024-01-06T04:18:35;5.60;99.90
22202;DHT22;11266;51.522;6.302;2024-01-06T04:19:20;5.60;99.90
22202;DHT22;11266;51.522;6.302;2024-01-06T04:20:06;5.60;99.90
22202;DHT22;11266;51.522;6.302;2024-01-06T04:20:52;5.60;99.90
22202;DHT22;11266;51.522;6.302;2024-01-06T04:21:37;5.60;99.90
22202;DHT22;11266;51.522;6.302;2024-01-06T04:22:24;5.60;99.90
22202;DHT22;11266;51.522;6.302;2024-01-06T04:23:09;5.60;99.90
22202;DHT22;11266;51.522;6.302;2024-01-06T04:23:55;5.60;99.90
22202;DHT22;11266;51.522;6.302;2024-01-06T04:24:41;5.60;99.90
22202;DHT22;11266;51.522;6.302;2024-01-06T04:25:27;5.60;99.90
22202;DHT22;11266;51.522;6.302;2024-01-06T04:26:12;5.60;99.90
22202;DHT22;11266;51.522;6.302;2024-01-06T04:26:58;5.60;99.90
22202;DHT22;11266;51.522;6.302;2024-01-06T04:27:44;5.60;99.90
22202;DHT22;11266;51.522;6.302;2024-01-06T04:28:32;5.60;99.90
22202;DHT22;11266;51.522;6.302;2024-01-06T04:29:17;5.60;99.90
22202;DHT22;11266;51.522;6.302;2024-01-06T04:30:03;5.60;99.90
22202;DHT22;11266;51.522;6.302;2024-01-06T04:30:49;5.60;99.90
22202;DHT22;11266;51.522;6.302;2024-01-06T04:31:34;5.60;99.90
22202;DHT22;11266;51.522;6.302;2024-01-06T04:32:20;5.60;99.90
22202;DHT22;11266;51.522;6.302;2024-01-06T04:33:06;5.60;99.90
22202;DHT22;11266;51.522;6.302;2024-01-06T04:33:52;5.60;99.90
22202;DHT22;11266;51.522;6.302;2024-01-06T04:34:38;5.60;99.90
22202;DHT22;11266;51.522;6.302;2024-01-06T04:35:24;5.60;99.90
22202;DHT22;11266;51.522;6.302;2024-01-06T04:36:10;5.70;99.90
22202;DHT22;11266;51.522;6.302;2024-01-06T04:36:56;5.60;99.90
22202;DHT22;11266;51.522;6.302;2024-01-06T04:37:41;5.60;99.90
22202;DHT22;11266;51.522;6.302;2024-01-06T04:38:27;5.70;99.90
22202;DHT22;11266;51.522;6.302;2024-01-06T04:39:12;5.70;99.90
22202;DHT22;11266;51.522;6.302;2024-01-06T04:39:58;5.70;99.90
22202;DHT22;11266;51.522;6.302;2024-01-06T04:40:44;5.60;99.90
22202;DHT22;11266;51.522;6.302;2024-01-06T04:41:30;5.60;99.90
22202;DHT22;11266;51.522;6.302;2024-01-06T04:42:15;5.60;99.90
22202;DHT22;11266;51.522;6.302;2024-01-06T04:43:01;5.60;99.90
22202;DHT22;11266;51.522;6.302;2024-01-06T04:43:46;5.50;99.90
22202;DHT22;11266;51.522;6.302;2024-01-06T04:44:33;5.60;99.90
22202;DHT22;11266;51.522;6.302;2024-01-06T04:45:18;5.60;99.90
22202;DHT22;11266;51.522;6.302;2024-01-06T04:46:04;5.60;99.90
22202;DHT22;11266;51.522;6.302;2024-01-06T04:46:50;5.60;99.90
22202;DHT22;11266;51.522;6.302;2024-01-06T04:47:36;5.50;99.90
22202;DHT22;11266;51.522;6.302;2024-01-06T04:48:21;5.50;99.90
22202;DHT22;11266;51.522;6.302;2024-01-06T04:49:07;5.50;99.90
22202;DHT22;11266;51.522;6.302;2024-01-06T04:49:52;5.50;99.90
22202;DHT22;11266;51.522;6.302;2024-01-06T04:50:38;5.50;99.90
22202;DHT22;11266;51.522;6.302;2024-01-06T04:51:23;5.50;99.90
22202;DHT22;11266;51.522;6.302;2024-01-06T04:52:09;5.50;99.90
22202;DHT22;11266;51.522;6.302;2024-01-06T04:52:55;5.50;99.90
22202;DHT22;11266;51.522;6.302;2024-01-06T04:53:40;5.50;99.90